createdAt,value
2023-03-30T00:01:34.747Z,55.47
2023-03-30T00:04:06.971Z,55.58
2023-03-30T00:06:39.322Z,55.59
2023-03-30T00:09:10.931Z,55.76
2023-03-30T00:11:43.283Z,55.93
2023-03-30T00:14:18.050Z,56.05
2023-03-30T00:16:49.517Z,56.33
2023-03-30T00:19:20.688Z,56.45
2023-03-30T00:21:51.861Z,56.51
2023-03-30T00:24:23.473Z,56.59
2023-03-30T00:26:54.817Z,56.83
2023-03-30T00:29:28.699Z,56.92
2023-03-30T00:31:59.908Z,56.94
2023-03-30T00:34:31.829Z,57.15
2023-03-30T00:37:03.471Z,57.35
2023-03-30T00:39:35.193Z,57.53
2023-03-30T00:42:06.970Z,57.65
2023-03-30T00:45:09.224Z,57.62
2023-03-30T00:47:43.227Z,57.70
2023-03-30T00:50:15.286Z,57.78
2023-03-30T00:52:47.700Z,57.98
2023-03-30T00:55:18.706Z,58.07
2023-03-30T00:57:52.567Z,58.24
2023-03-30T01:00:25.130Z,58.29
2023-03-30T01:03:01.586Z,58.42
2023-03-30T01:05:33.719Z,58.64
2023-03-30T01:08:07.745Z,58.67
2023-03-30T01:10:39.808Z,58.78
2023-03-30T01:13:11.101Z,59.01
2023-03-30T01:15:53.734Z,59.16
2023-03-30T01:18:36.772Z,59.04
2023-03-30T01:22:00.301Z,59.21
2023-03-30T01:25:10.408Z,59.85
2023-03-30T01:28:14.026Z,59.93
2023-03-30T01:31:05.439Z,60.02
2023-03-30T01:34:02.799Z,60.22
2023-03-30T01:37:02.091Z,60.30
2023-03-30T01:39:51.047Z,60.25
2023-03-30T01:42:30.105Z,60.50
2023-03-30T01:45:11.090Z,60.48
2023-03-30T01:47:51.617Z,60.73
2023-03-30T01:50:29.547Z,60.79
2023-03-30T01:53:07.913Z,60.83
2023-03-30T01:55:45.186Z,61.04
2023-03-30T01:58:25.474Z,60.89
2023-03-30T02:00:58.459Z,61.12
2023-03-30T02:03:33.236Z,61.15
2023-03-30T02:06:10.866Z,61.23
2023-03-30T02:08:44.467Z,61.28
2023-03-30T02:11:15.959Z,61.43
2023-03-30T02:13:51.365Z,61.40
2023-03-30T02:16:29.863Z,61.32
2023-03-30T02:19:02.117Z,61.54
2023-03-30T02:21:36.630Z,61.63
2023-03-30T02:24:17.902Z,61.63
2023-03-30T02:26:52.303Z,61.67
2023-03-30T02:29:23.968Z,61.82
2023-03-30T02:31:58.325Z,62.02
2023-03-30T02:34:47.197Z,62.13
2023-03-30T02:37:32.585Z,62.35
2023-03-30T02:40:19.928Z,62.36
2023-03-30T02:43:05.829Z,62.34
2023-03-30T02:45:49.300Z,62.38
2023-03-30T02:48:33.089Z,62.74
2023-03-30T02:51:23.420Z,62.77
2023-03-30T02:54:18.895Z,62.88
2023-03-30T02:57:32.522Z,62.87
2023-03-30T03:00:29.280Z,62.98
2023-03-30T03:03:06.158Z,63.16
2023-03-30T03:05:38.292Z,63.45
2023-03-30T03:08:23.788Z,63.55
2023-03-30T03:10:55.227Z,63.73
2023-03-30T03:13:28.060Z,63.87
2023-03-30T03:16:03.622Z,64.05
2023-03-30T03:18:37.164Z,64.23
2023-03-30T03:21:09.144Z,64.10
2023-03-30T03:23:40.542Z,64.06
2023-03-30T03:26:14.166Z,64.15
2023-03-30T03:28:46.270Z,63.88
2023-03-30T03:31:17.659Z,63.95
2023-03-30T03:33:49.217Z,64.08
2023-03-30T03:36:25.888Z,64.51
2023-03-30T03:38:57.919Z,64.86
2023-03-30T03:41:29.667Z,64.98
2023-03-30T03:44:00.780Z,65.03
2023-03-30T03:46:32.018Z,65.02
2023-03-30T03:49:03.068Z,65.05
2023-03-30T03:51:34.070Z,65.13
2023-03-30T03:54:05.385Z,65.00
2023-03-30T03:56:36.338Z,65.02
2023-03-30T03:59:07.740Z,65.10
2023-03-30T04:01:38.945Z,64.91
2023-03-30T04:04:12.973Z,65.29
2023-03-30T04:06:44.147Z,65.69
2023-03-30T04:09:15.866Z,65.60
2023-03-30T04:12:07.944Z,66.10
2023-03-30T04:14:55.404Z,66.03
2023-03-30T04:17:47.373Z,66.34
2023-03-30T04:20:23.606Z,66.68
2023-03-30T04:23:22.244Z,67.07
2023-03-30T04:26:13.758Z,66.69
2023-03-30T04:28:53.856Z,66.54
2023-03-30T04:31:47.311Z,66.77
2023-03-30T04:34:22.261Z,67.02
2023-03-30T04:37:10.467Z,67.42
2023-03-30T04:39:57.870Z,67.30
2023-03-30T04:42:34.449Z,67.00
2023-03-30T04:45:35.217Z,67.75
2023-03-30T04:48:26.472Z,67.59
2023-03-30T04:51:16.339Z,67.54
2023-03-30T04:53:47.685Z,68.09
2023-03-30T04:56:42.051Z,67.78
2023-03-30T04:59:31.589Z,66.98
2023-03-30T05:02:21.168Z,67.13
2023-03-30T05:05:06.994Z,66.93
2023-03-30T05:07:58.510Z,66.48
2023-03-30T05:10:48.791Z,66.55
2023-03-30T05:13:40.497Z,66.03
2023-03-30T05:16:30.261Z,66.03
2023-03-30T05:19:31.015Z,66.01
2023-03-30T05:22:02.555Z,66.03
2023-03-30T05:25:02.716Z,66.05
2023-03-30T05:27:47.030Z,66.18
2023-03-30T05:30:38.625Z,66.01
2023-03-30T05:33:30.331Z,65.84
2023-03-30T05:36:25.092Z,65.85
2023-03-30T05:39:23.578Z,65.85
2023-03-30T05:42:15.574Z,65.73
2023-03-30T05:44:57.902Z,65.59
2023-03-30T05:47:47.587Z,65.55
2023-03-30T05:50:44.822Z,65.49
2023-03-30T05:53:25.225Z,65.19
2023-03-30T05:56:18.255Z,65.23
2023-03-30T05:59:10.425Z,65.20
2023-03-30T06:04:47.958Z,65.04
2023-03-30T06:07:20.934Z,64.94
2023-03-30T06:09:53.716Z,64.83
2023-03-30T06:12:29.063Z,64.70
2023-03-30T06:15:02.696Z,64.61
2023-03-30T06:17:54.796Z,64.79
2023-03-30T06:20:26.286Z,64.56
2023-03-30T06:22:57.705Z,64.60
2023-03-30T06:25:30.361Z,64.71
2023-03-30T06:28:01.778Z,64.70
2023-03-30T06:30:33.425Z,64.66
2023-03-30T06:33:06.607Z,64.95
2023-03-30T06:35:45.080Z,64.60
2023-03-30T06:38:17.405Z,64.72
2023-03-30T06:40:48.831Z,65.35
2023-03-30T06:43:22.351Z,65.39
2023-03-30T06:46:15.152Z,66.36
2023-03-30T06:48:49.879Z,66.41
2023-03-30T06:51:39.472Z,66.77
2023-03-30T06:54:11.334Z,66.95
2023-03-30T06:56:43.312Z,67.36
2023-03-30T06:59:17.797Z,67.15
2023-03-30T07:02:08.102Z,67.44
2023-03-30T07:05:10.458Z,66.99
2023-03-30T07:07:50.753Z,66.95
2023-03-30T07:10:23.801Z,66.76
2023-03-30T07:12:54.891Z,66.71
2023-03-30T07:15:26.609Z,66.66
2023-03-30T07:17:57.974Z,66.52
2023-03-30T07:20:31.142Z,66.90
2023-03-30T07:23:16.791Z,66.85
2023-03-30T07:25:48.944Z,66.90
2023-03-30T07:28:22.930Z,66.70
2023-03-30T07:30:54.384Z,67.20
2023-03-30T07:33:30.030Z,67.14
2023-03-30T07:36:03.342Z,67.24
2023-03-30T07:38:35.431Z,66.91
2023-03-30T07:41:12.463Z,67.24
2023-03-30T07:43:44.091Z,67.02
2023-03-30T07:46:15.184Z,66.76
2023-03-30T07:48:49.531Z,67.06
2023-03-30T07:51:21.125Z,67.19
2023-03-30T07:54:01.499Z,67.25
2023-03-30T07:56:43.071Z,66.96
2023-03-30T07:59:14.881Z,66.84
2023-03-30T08:01:50.302Z,67.07
2023-03-30T08:04:32.057Z,67.02
2023-03-30T08:07:04.706Z,67.11
2023-03-30T08:09:36.160Z,67.32
2023-03-30T08:12:08.346Z,67.17
2023-03-30T08:14:39.246Z,67.43
2023-03-30T08:17:10.078Z,67.24
2023-03-30T08:19:41.237Z,67.01
2023-03-30T08:22:12.687Z,67.17
2023-03-30T08:24:44.114Z,67.21
2023-03-30T08:27:15.532Z,66.95
2023-03-30T08:29:46.835Z,66.74
2023-03-30T08:32:17.853Z,67.08
2023-03-30T08:34:48.873Z,66.92
2023-03-30T08:37:20.028Z,66.95
2023-03-30T08:39:51.454Z,66.91
2023-03-30T08:42:41.925Z,66.90
2023-03-30T08:45:15.079Z,66.68
2023-03-30T08:47:50.191Z,66.36
2023-03-30T08:50:31.603Z,66.43
2023-03-30T08:53:04.298Z,65.82
2023-03-30T08:55:41.850Z,65.74
2023-03-30T08:58:21.077Z,65.79
2023-03-30T09:00:58.946Z,66.18
2023-03-30T09:03:39.616Z,66.94
2023-03-30T09:06:20.846Z,67.12
2023-03-30T09:08:53.344Z,67.31
2023-03-30T09:11:31.966Z,67.51
2023-03-30T09:14:05.691Z,68.05
2023-03-30T09:16:46.035Z,67.66
2023-03-30T09:19:22.060Z,68.10
2023-03-30T09:21:55.537Z,69.15
2023-03-30T09:24:28.117Z,68.83
2023-03-30T09:27:04.054Z,69.06
2023-03-30T09:29:41.128Z,69.42
2023-03-30T09:32:21.100Z,69.27
2023-03-30T09:34:59.476Z,69.67
2023-03-30T09:37:31.489Z,69.24
2023-03-30T09:40:16.840Z,69.37
2023-03-30T09:42:56.821Z,69.92
2023-03-30T09:45:33.361Z,70.19
2023-03-30T09:48:09.530Z,70.05
2023-03-30T09:50:46.439Z,69.68
2023-03-30T09:53:26.807Z,69.26
2023-03-30T09:56:10.289Z,69.04
2023-03-30T09:58:41.587Z,68.90
2023-03-30T10:01:14.579Z,68.83
2023-03-30T10:03:47.926Z,68.97
2023-03-30T10:06:21.850Z,69.43
2023-03-30T10:08:56.430Z,69.06
2023-03-30T10:11:38.186Z,69.31
2023-03-30T10:14:28.772Z,69.26
2023-03-30T10:17:02.149Z,69.18
2023-03-30T10:19:37.612Z,69.35
2023-03-30T10:22:18.915Z,68.96
2023-03-30T10:24:55.362Z,68.82
2023-03-30T10:27:35.036Z,68.49
2023-03-30T10:30:14.528Z,68.98
2023-03-30T10:32:47.863Z,68.81
2023-03-30T10:35:23.412Z,68.50
2023-03-30T10:37:56.677Z,68.62
2023-03-30T10:40:34.121Z,68.60
2023-03-30T10:43:07.343Z,68.42
2023-03-30T10:45:42.958Z,68.48
2023-03-30T10:48:25.425Z,68.22
2023-03-30T10:51:03.904Z,68.47
2023-03-30T10:53:43.434Z,68.41
2023-03-30T10:56:23.617Z,68.07
2023-03-30T10:59:12.368Z,68.00
2023-03-30T11:01:54.974Z,67.53
2023-03-30T11:04:33.138Z,67.63
2023-03-30T11:07:06.888Z,67.73
2023-03-30T11:09:43.017Z,67.77
2023-03-30T11:12:20.882Z,67.70
2023-03-30T11:14:57.562Z,67.37
2023-03-30T11:17:33.342Z,66.99
2023-03-30T11:20:19.111Z,66.50
2023-03-30T11:22:55.088Z,66.13
2023-03-30T11:25:30.916Z,65.95
2023-03-30T11:28:15.280Z,66.48
2023-03-30T11:30:46.469Z,66.22
2023-03-30T11:33:27.398Z,65.64
2023-03-30T11:36:03.499Z,66.00
2023-03-30T11:38:42.657Z,65.41
2023-03-30T11:41:17.446Z,65.18
2023-03-30T11:43:49.054Z,65.20
2023-03-30T11:46:28.507Z,65.07
2023-03-30T11:49:24.615Z,65.23
2023-03-30T11:52:10.250Z,64.63
2023-03-30T11:55:07.849Z,64.14
2023-03-30T11:57:46.105Z,63.81
2023-03-30T12:00:34.495Z,64.19
2023-03-30T12:03:17.698Z,65.06
2023-03-30T12:05:52.285Z,65.50
2023-03-30T12:08:43.944Z,65.55
2023-03-30T12:11:22.793Z,65.71
2023-03-30T12:13:54.773Z,66.17
2023-03-30T12:16:32.982Z,65.78
2023-03-30T12:19:14.211Z,65.59
2023-03-30T12:21:55.462Z,64.98
2023-03-30T12:24:34.981Z,64.41
2023-03-30T12:27:11.912Z,63.92
2023-03-30T12:32:30.571Z,63.84
2023-03-30T12:35:02.051Z,64.21
2023-03-30T12:37:36.427Z,64.50
2023-03-30T12:40:18.169Z,64.49
2023-03-30T12:42:56.199Z,64.71
2023-03-30T12:45:33.237Z,64.52
2023-03-30T12:48:28.646Z,63.98
2023-03-30T12:51:14.016Z,63.67
2023-03-30T12:53:57.967Z,64.31
2023-03-30T12:56:39.177Z,64.09
2023-03-30T12:59:32.866Z,63.57
2023-03-30T13:02:40.661Z,63.60
2023-03-30T13:05:27.642Z,63.90
2023-03-30T13:08:03.883Z,63.46
2023-03-30T13:10:44.668Z,62.80
2023-03-30T13:13:45.501Z,63.03
2023-03-30T13:16:37.341Z,62.67
2023-03-30T13:19:22.608Z,62.80
2023-03-30T13:21:59.631Z,62.67
2023-03-30T13:24:41.246Z,62.71
2023-03-30T13:27:27.864Z,62.21
2023-03-30T13:30:03.522Z,62.20
2023-03-30T13:32:52.840Z,62.25
2023-03-30T13:35:36.562Z,62.66
2023-03-30T13:38:28.639Z,63.00
2023-03-30T13:41:10.110Z,62.52
2023-03-30T13:43:58.214Z,62.72
2023-03-30T13:46:37.206Z,62.70
2023-03-30T13:49:25.492Z,62.62
2023-03-30T13:52:03.852Z,61.91
2023-03-30T13:54:40.371Z,62.30
2023-03-30T13:57:14.110Z,62.77
2023-03-30T13:59:49.562Z,62.85
2023-03-30T14:02:23.719Z,62.77
2023-03-30T14:04:54.949Z,62.01
2023-03-30T14:07:26.461Z,61.89
2023-03-30T14:10:12.808Z,62.50
2023-03-30T14:12:45.840Z,62.76
2023-03-30T14:15:23.088Z,62.73
2023-03-30T14:17:56.972Z,62.38
2023-03-30T14:20:46.588Z,61.81
2023-03-30T14:23:22.117Z,62.16
2023-03-30T14:25:59.340Z,62.47
2023-03-30T14:28:34.739Z,62.44
2023-03-30T14:31:15.876Z,62.07
2023-03-30T14:33:47.901Z,61.78
2023-03-30T14:36:21.454Z,62.14
2023-03-30T14:38:55.131Z,62.00
2023-03-30T14:41:28.801Z,61.92
2023-03-30T14:44:03.215Z,61.40
2023-03-30T14:46:40.300Z,61.61
2023-03-30T14:49:18.652Z,61.89
2023-03-30T14:51:52.698Z,61.43
2023-03-30T14:54:25.972Z,61.46
2023-03-30T14:57:00.338Z,61.49
2023-03-30T14:59:33.514Z,61.72
2023-03-30T15:02:05.828Z,61.13
2023-03-30T15:04:39.696Z,61.02
2023-03-30T15:07:15.811Z,61.21
2023-03-30T15:09:49.216Z,61.15
2023-03-30T15:12:26.016Z,61.81
2023-03-30T15:15:02.003Z,61.87
2023-03-30T15:17:34.289Z,61.75
2023-03-30T15:20:08.292Z,61.76
2023-03-30T15:22:42.476Z,62.00
2023-03-30T15:25:18.020Z,61.85
2023-03-30T15:27:56.002Z,61.87
2023-03-30T15:30:33.965Z,61.66
2023-03-30T15:33:05.919Z,61.36
2023-03-30T15:35:38.812Z,61.66
2023-03-30T15:38:18.242Z,61.64
2023-03-30T15:40:51.130Z,61.76
2023-03-30T15:43:25.283Z,62.00
2023-03-30T15:46:01.811Z,62.05
2023-03-30T15:48:37.540Z,61.94
2023-03-30T15:51:13.547Z,61.61
2023-03-30T15:53:49.861Z,61.62
2023-03-30T15:56:25.355Z,61.67
2023-03-30T15:58:58.641Z,61.72
2023-03-30T16:01:45.250Z,61.73
2023-03-30T16:04:20.140Z,61.80
2023-03-30T16:06:52.656Z,61.92
2023-03-30T16:09:24.679Z,62.05
2023-03-30T16:11:56.093Z,62.13
2023-03-30T16:14:27.464Z,62.36
2023-03-30T16:16:58.736Z,62.43
2023-03-30T16:19:30.510Z,61.95
2023-03-30T16:22:01.858Z,61.61
2023-03-30T16:24:33.461Z,61.73
2023-03-30T16:27:05.223Z,62.00
2023-03-30T16:29:37.258Z,62.07
2023-03-30T16:32:08.936Z,62.16
2023-03-30T16:34:43.032Z,62.20
2023-03-30T16:37:14.938Z,62.30
2023-03-30T16:39:46.863Z,62.37
2023-03-30T16:42:18.774Z,62.08
2023-03-30T16:44:49.982Z,62.12
2023-03-30T16:47:22.253Z,62.11
2023-03-30T16:49:53.429Z,62.08
2023-03-30T16:52:24.963Z,61.71
2023-03-30T16:54:56.196Z,61.68
2023-03-30T16:57:27.616Z,61.95
2023-03-30T16:59:59.206Z,62.09
2023-03-30T17:02:30.781Z,62.15
2023-03-30T17:05:02.298Z,62.18
2023-03-30T17:07:35.434Z,62.04
2023-03-30T17:10:17.331Z,62.15
2023-03-30T17:12:49.845Z,62.02
2023-03-30T17:15:21.677Z,62.01
2023-03-30T17:17:53.165Z,62.02
2023-03-30T17:20:30.670Z,62.04
2023-03-30T17:23:02.141Z,62.02
2023-03-30T17:25:36.182Z,62.22
2023-03-30T17:28:09.074Z,62.38
2023-03-30T17:30:42.529Z,62.29
2023-03-30T17:33:14.108Z,62.39
2023-03-30T17:35:48.418Z,62.57
2023-03-30T17:38:19.746Z,62.30
2023-03-30T17:40:51.062Z,62.21
2023-03-30T17:43:22.200Z,62.21
2023-03-30T17:45:53.574Z,62.21
2023-03-30T17:48:25.672Z,62.22
2023-03-30T17:50:56.632Z,62.18
2023-03-30T17:53:28.036Z,62.31
2023-03-30T17:55:59.584Z,62.40
2023-03-30T17:58:34.113Z,62.46
2023-03-30T18:01:07.507Z,62.41
2023-03-30T18:03:39.723Z,62.35
2023-03-30T18:06:14.194Z,62.31
2023-03-30T18:08:45.241Z,62.28
2023-03-30T18:11:17.127Z,62.28
2023-03-30T18:13:48.437Z,62.12
2023-03-30T18:16:23.214Z,62.06
2023-03-30T18:18:55.456Z,62.31
2023-03-30T18:21:28.049Z,62.54
2023-03-30T18:24:00.637Z,62.55
2023-03-30T18:26:34.188Z,62.78
2023-03-30T18:29:10.251Z,62.82
2023-03-30T18:31:41.414Z,63.09
2023-03-30T18:34:12.667Z,62.90
2023-03-30T18:36:44.731Z,63.03
2023-03-30T18:39:20.183Z,62.97
2023-03-30T18:41:51.574Z,63.11
2023-03-30T18:44:23.026Z,63.23
2023-03-30T18:46:54.223Z,63.39
2023-03-30T18:49:25.384Z,63.70
2023-03-30T18:51:56.399Z,63.91
2023-03-30T18:54:27.811Z,63.90
2023-03-30T18:57:00.614Z,64.19
2023-03-30T18:59:33.574Z,64.30
2023-03-30T19:02:04.436Z,64.44
2023-03-30T19:04:35.791Z,64.16
2023-03-30T19:07:07.528Z,64.43
2023-03-30T19:09:43.463Z,64.42
2023-03-30T19:12:16.310Z,64.22
2023-03-30T19:14:47.456Z,64.29
2023-03-30T19:17:18.655Z,64.62
2023-03-30T19:19:49.827Z,64.40
2023-03-30T19:22:21.148Z,64.28
2023-03-30T19:24:52.502Z,64.31
2023-03-30T19:27:23.794Z,64.47
2023-03-30T19:29:54.909Z,64.54
2023-03-30T19:32:26.308Z,64.52
2023-03-30T19:34:57.460Z,64.50
2023-03-30T19:37:28.553Z,64.58
2023-03-30T19:39:59.389Z,64.74
2023-03-30T19:42:32.635Z,64.74
2023-03-30T19:45:06.067Z,64.77
2023-03-30T19:47:37.352Z,64.80
2023-03-30T19:50:13.162Z,64.78
2023-03-30T19:52:44.512Z,64.62
2023-03-30T19:55:15.540Z,64.65
2023-03-30T19:57:47.029Z,64.73
2023-03-30T20:00:21.368Z,64.72
2023-03-30T20:02:56.689Z,64.49
2023-03-30T20:05:28.423Z,64.47
2023-03-30T20:08:00.857Z,64.61
2023-03-30T20:10:37.009Z,64.71
2023-03-30T20:13:08.471Z,64.60
2023-03-30T20:15:39.854Z,64.84
2023-03-30T20:18:11.422Z,64.59
2023-03-30T20:20:43.063Z,64.61
2023-03-30T20:23:14.171Z,64.62
2023-03-30T20:25:49.583Z,64.49
2023-03-30T20:28:21.270Z,64.47
2023-03-30T20:30:55.840Z,64.52
2023-03-30T20:33:29.284Z,64.52
2023-03-30T20:36:02.327Z,64.51
2023-03-30T20:38:34.003Z,64.55
2023-03-30T20:41:06.207Z,64.56
2023-03-30T20:43:55.695Z,64.66
2023-03-30T20:46:35.025Z,64.64
2023-03-30T20:49:06.778Z,64.49
2023-03-30T20:51:40.091Z,64.64
2023-03-30T20:54:12.073Z,64.32
2023-03-30T20:56:43.418Z,64.45
2023-03-30T20:59:14.591Z,64.22
2023-03-30T21:01:47.348Z,64.31
2023-03-30T21:04:18.922Z,64.39
2023-03-30T21:06:50.678Z,64.37
2023-03-30T21:09:22.286Z,64.21
2023-03-30T21:11:54.225Z,64.24
2023-03-30T21:14:26.522Z,64.25
2023-03-30T21:16:57.871Z,64.20
2023-03-30T21:19:29.319Z,64.29
2023-03-30T21:22:01.474Z,64.33
2023-03-30T21:24:33.162Z,64.33
2023-03-30T21:27:04.759Z,64.21
2023-03-30T21:29:36.108Z,64.24
2023-03-30T21:32:07.713Z,64.09
2023-03-30T21:34:39.022Z,64.11
2023-03-30T21:37:10.002Z,64.12
2023-03-30T21:39:41.173Z,64.12
2023-03-30T21:42:13.453Z,64.11
2023-03-30T21:44:44.917Z,64.07
2023-03-30T21:47:16.981Z,63.97
2023-03-30T21:49:48.575Z,63.95
2023-03-30T21:52:19.791Z,63.82
2023-03-30T21:54:51.048Z,63.86
2023-03-30T21:57:22.269Z,63.85
2023-03-30T21:59:53.518Z,63.94
2023-03-30T22:02:25.430Z,63.82
2023-03-30T22:04:56.958Z,63.77
2023-03-30T22:07:28.069Z,63.87
2023-03-30T22:10:01.459Z,63.76
2023-03-30T22:12:32.911Z,63.79
2023-03-30T22:15:04.043Z,63.72
2023-03-30T22:17:41.660Z,63.70
2023-03-30T22:20:14.385Z,63.74
2023-03-30T22:22:45.989Z,63.58
2023-03-30T22:25:18.252Z,63.62
2023-03-30T22:27:49.571Z,63.46
2023-03-30T22:30:21.173Z,63.65
2023-03-30T22:32:52.751Z,63.51
2023-03-30T22:35:24.108Z,63.36
2023-03-30T22:37:55.361Z,63.25
2023-03-30T22:40:26.549Z,63.32
2023-03-30T22:42:57.671Z,63.26
2023-03-30T22:45:29.108Z,63.19
2023-03-30T22:48:01.302Z,63.13
2023-03-30T22:50:34.109Z,63.13
2023-03-30T22:53:05.512Z,63.17
2023-03-30T22:55:37.041Z,63.09
2023-03-30T22:58:11.513Z,63.04
2023-03-30T23:00:43.047Z,62.90
2023-03-30T23:03:14.734Z,62.90
2023-03-30T23:05:51.275Z,62.81
2023-03-30T23:08:24.198Z,62.90
2023-03-30T23:10:56.909Z,62.80
2023-03-30T23:13:28.396Z,62.84
2023-03-30T23:15:59.864Z,62.87
2023-03-30T23:18:30.785Z,62.94
2023-03-30T23:21:06.677Z,62.98
2023-03-30T23:23:38.871Z,63.01
2023-03-30T23:26:12.213Z,62.96
2023-03-30T23:28:45.380Z,63.08
2023-03-30T23:31:19.068Z,63.08
2023-03-30T23:33:50.966Z,62.99
2023-03-30T23:36:22.840Z,63.09
2023-03-30T23:38:54.540Z,63.09
2023-03-30T23:41:26.256Z,63.03
2023-03-30T23:43:57.267Z,63.15
2023-03-30T23:46:29.122Z,62.99
2023-03-30T23:49:00.405Z,63.10
2023-03-30T23:51:31.809Z,63.09
2023-03-30T23:54:06.444Z,63.02
2023-03-30T23:56:38.752Z,63.10
2023-03-30T23:59:10.253Z,63.01
